Helas — C4AZ2 — position and weather

sailwx.info

Track history (hours):
 
Tides and Currents Weather Stations Pressure Air Temp Water Temp Dewpoint Dewpoint Depression Visibility Wind Speed Wind Dir Waves Ship Positions

Helas

Last reported at 2016-Jun-26 07:30 UTC. Time now 2016-Jun-26 13:46 UTC.
Position N 52°29' E 003°51'.

Length 89 m; draft 5.8 m.

Type: Cargo ship. MMSI: 210031000.

Date/timePositionNaut miles runAvg speedWind from/ knotsBaromVisibWave heightAir tempDewpointWater temp
2016-Jun-26 07:30N 52°29' E 003°51'8 8.3
2016-Jun-26 06:31N 52°31' E 004°05'8 8.5
2016-Jun-26 05:33N 52°30' E 004°18'9 8.9
2016-Jun-26 04:34N 52°28' E 004°32'3 2.7
2016-Jun-26 03:33N 52°28' E 004°36'0 0.0
2016-Jun-26 02:30N 52°28' E 004°36'0 0.0
2016-Jun-26 01:33N 52°28' E 004°36'0 0.0
2016-Jun-26 00:33N 52°28' E 004°36'0 0.0
2016-Jun-25 23:33N 52°28' E 004°36'0 0.0
2016-Jun-25 22:30N 52°28' E 004°36'0 0.0
2016-Jun-25 21:33N 52°28' E 004°36'0 0.0
2016-Jun-25 20:33N 52°28' E 004°36'0 0.0
2016-Jun-25 19:32N 52°28' E 004°36'0 0.0
2016-Jun-25 18:32N 52°28' E 004°36'0 0.0
2016-Jun-25 17:32N 52°28' E 004°36'0 0.0
2016-Jun-25 16:32N 52°28' E 004°36'0 0.0
2016-Jun-25 15:32N 52°28' E 004°36'0 0.0
2016-Jun-25 14:32N 52°28' E 004°36'0 0.0
2016-Jun-25 13:32N 52°28' E 004°36'0 0.0
2016-Jun-25 12:32N 52°28' E 004°36'0 0.0
2016-Jun-25 11:32N 52°28' E 004°36'0 0.0
2016-Jun-25 10:32N 52°28' E 004°36'0 0.0
2016-Jun-25 09:32N 52°28' E 004°36'0 0.0
2016-Jun-25 08:32N 52°28' E 004°36'0 0.0
2016-Jun-25 07:32N 52°28' E 004°36'0 0.0
2016-Jun-25 06:32N 52°28' E 004°36'0 0.0
2016-Jun-25 05:32N 52°28' E 004°36'0 0.0
2016-Jun-25 04:32N 52°28' E 004°36'0 0.0
2016-Jun-25 03:32N 52°28' E 004°36'0 0.0
2016-Jun-25 02:32N 52°28' E 004°36'0 0.0
2016-Jun-25 01:29N 52°28' E 004°36'0 0.0
2016-Jun-25 00:32N 52°28' E 004°36'0 0.0
2016-Jun-24 23:32N 52°28' E 004°36'0 0.0
2016-Jun-24 22:32N 52°28' E 004°36'0 0.0
2016-Jun-24 21:32N 52°28' E 004°36'0 0.0
2016-Jun-24 20:32N 52°28' E 004°36'0 0.0
2016-Jun-24 19:32N 52°28' E 004°36'0 0.0
2016-Jun-24 18:32N 52°28' E 004°36'0 0.0
2016-Jun-24 17:32N 52°28' E 004°36'0 0.0
2016-Jun-24 16:32N 52°28' E 004°36'0 0.0
2016-Jun-24 15:32N 52°28' E 004°36'0 0.0
2016-Jun-24 14:32N 52°28' E 004°36'0 0.0
2016-Jun-24 13:32N 52°28' E 004°36'0 0.0
2016-Jun-24 12:31N 52°28' E 004°36'0 0.0
2016-Jun-24 11:31N 52°28' E 004°36'3 1.5
2016-Jun-24 09:34N 52°28' E 004°32'7 6.9
2016-Jun-24 08:33N 52°26' E 004°21'1312.5
2016-Jun-24 07:33N 52°15' E 004°09'23 7.6
2016-Jun-24 04:34N 51°53' E 004°19'1 1.4
2016-Jun-24 03:32N 51°53' E 004°16'0 0.0
2016-Jun-24 02:32N 51°53' E 004°16'0 0.0
2016-Jun-24 01:32N 51°53' E 004°16'0 0.0
2016-Jun-24 00:32N 51°53' E 004°16'0 0.0
2016-Jun-23 23:32N 51°53' E 004°16'0 0.0
2016-Jun-23 22:32N 51°53' E 004°16'0 0.0
2016-Jun-23 21:32N 51°53' E 004°16'0 0.0
2016-Jun-23 20:32N 51°53' E 004°16'0 0.0
2016-Jun-23 19:32N 51°53' E 004°16'0 0.0
2016-Jun-23 18:32N 51°53' E 004°16'0 0.0
2016-Jun-23 17:29N 51°53' E 004°16'0 0.0
2016-Jun-23 16:26N 51°53' E 004°16'0 0.0
2016-Jun-23 15:29N 51°53' E 004°16'0 0.0
2016-Jun-23 14:32N 51°53' E 004°16'0 0.0
2016-Jun-23 13:32N 51°53' E 004°16'0 0.0
2016-Jun-23 12:32N 51°53' E 004°16'0 0.0
2016-Jun-23 11:32N 51°53' E 004°16'0 0.0
2016-Jun-23 10:26N 51°53' E 004°16'0 0.0
2016-Jun-23 09:32N 51°53' E 004°16'0 0.0
2016-Jun-23 08:32N 51°53' E 004°16'0 0.0
2016-Jun-23 07:32N 51°53' E 004°16'0 0.0
2016-Jun-23 05:34N 51°53' E 004°16'0 0.0
2016-Jun-23 04:34N 51°53' E 004°16'0 0.5
2016-Jun-23 03:34N 51°53' E 004°17'6 6.2
2016-Jun-23 02:34N 51°57' E 004°09'9 8.5
2016-Jun-23 01:34N 51°59' E 003°56'6 6.4
2016-Jun-23 00:33N 51°57' E 003°46'0 0.1
2016-Jun-22 23:26N 51°57' E 003°46'0 0.0
2016-Jun-22 22:29N 51°57' E 003°46'0 0.0
2016-Jun-22 21:32N 51°57' E 003°46'0 0.0
2016-Jun-22 20:32N 51°57' E 003°46'0 0.1
2016-Jun-22 19:32N 51°57' E 003°46'0 0.1
2016-Jun-22 18:26N 51°57' E 003°47'0 0.0
2016-Jun-22 17:29N 51°57' E 003°47'0 0.0
2016-Jun-22 16:23N 51°57' E 003°47'0 0.0
2016-Jun-22 15:32N 51°57' E 003°47'0 0.0
2016-Jun-22 14:20N 51°57' E 003°47'0 0.1
2016-Jun-22 13:29N 51°57' E 003°46'0 0.1
2016-Jun-22 12:32N 51°57' E 003°46'0 0.1
2016-Jun-22 11:20N 51°57' E 003°46'0 0.1
2016-Jun-22 10:23N 51°57' E 003°46'0 0.0
2016-Jun-22 09:32N 51°57' E 003°46'0 0.0
2016-Jun-22 08:32N 51°57' E 003°46'6 5.4
2016-Jun-22 07:23N 51°57' E 003°36'5 6.0
2016-Jun-22 06:33N 51°55' E 003°28'19 9.2
2016-Jun-22 04:30N 51°50' E 002°59'2010.3
2016-Jun-22 02:34N 51°41' E 002°31'1211.4
2016-Jun-22 01:31N 51°32' E 002°19'1111.0
2016-Jun-22 00:33N 51°22' E 002°10'1110.6
2016-Jun-21 23:33N 51°13' E 002°02'1010.4
2016-Jun-21 22:33N 51°07' E 001°49'9 9.3
2016-Jun-21 21:33N 50°60' E 001°39'8 7.8
2016-Jun-21 20:33N 50°54' E 001°30'7 7.0
2016-Jun-21 19:33N 50°47' E 001°27'48 8.0
2016-Jun-21 13:33N 50°21' E 000°23'9 9.0
2016-Jun-21 12:33N 50°19' E 000°09'10 9.6
2016-Jun-21 11:33N 50°17' W 000°05'1110.6
2016-Jun-21 10:33N 50°14' W 000°21'1211.6
2016-Jun-21 09:32N 50°11' W 000°39'1212.4
2016-Jun-21 08:33N 50°08' W 000°57'1312.5
2016-Jun-21 07:32N 50°04' W 001°17'59 8.5
2016-Jun-21 00:33N 49°49' W 002°45'8 7.9
2016-Jun-20 23:33N 49°45' W 002°56'9 8.8
2016-Jun-20 22:33N 49°40' W 003°07'9 9.3
2016-Jun-20 21:33N 49°35' W 003°19'9 9.4
2016-Jun-20 20:33N 49°29' W 003°31'6310.4
2016-Jun-20 14:33N 48°51' W 004°47'1010.1
2016-Jun-20 13:33N 48°45' W 004°59'9 9.3
2016-Jun-20 12:33N 48°40' W 005°11'9 8.6
2016-Jun-20 11:32N 48°33' W 005°20'7 7.4
2016-Jun-20 10:32N 48°28' W 005°27'  
Track history (hours):
 
Tides and Currents Weather Stations Pressure Air Temp Water Temp Dewpoint Dewpoint Depression Visibility Wind Speed Wind Dir Waves Ship Positions

Helas

Last reported at 2016-Jun-26 07:30 UTC. Time now 2016-Jun-26 13:46 UTC.
Position N 52°29' E 003°51'.

Length 89 m; draft 5.8 m.

Type: Cargo ship. MMSI: 210031000.

Date/timePositionNaut miles runAvg speedWind from/ knotsBaromVisibWave heightAir tempDewpointWater temp
2016-Jun-26 07:30N 52°29' E 003°51'8 8.3
2016-Jun-26 06:31N 52°31' E 004°05'8 8.5
2016-Jun-26 05:33N 52°30' E 004°18'9 8.9
2016-Jun-26 04:34N 52°28' E 004°32'3 2.7
2016-Jun-26 03:33N 52°28' E 004°36'0 0.0
2016-Jun-26 02:30N 52°28' E 004°36'0 0.0
2016-Jun-26 01:33N 52°28' E 004°36'0 0.0
2016-Jun-26 00:33N 52°28' E 004°36'0 0.0
2016-Jun-25 23:33N 52°28' E 004°36'0 0.0
2016-Jun-25 22:30N 52°28' E 004°36'0 0.0
2016-Jun-25 21:33N 52°28' E 004°36'0 0.0
2016-Jun-25 20:33N 52°28' E 004°36'0 0.0
2016-Jun-25 19:32N 52°28' E 004°36'0 0.0
2016-Jun-25 18:32N 52°28' E 004°36'0 0.0
2016-Jun-25 17:32N 52°28' E 004°36'0 0.0
2016-Jun-25 16:32N 52°28' E 004°36'0 0.0
2016-Jun-25 15:32N 52°28' E 004°36'0 0.0
2016-Jun-25 14:32N 52°28' E 004°36'0 0.0
2016-Jun-25 13:32N 52°28' E 004°36'0 0.0
2016-Jun-25 12:32N 52°28' E 004°36'0 0.0
2016-Jun-25 11:32N 52°28' E 004°36'0 0.0
2016-Jun-25 10:32N 52°28' E 004°36'0 0.0
2016-Jun-25 09:32N 52°28' E 004°36'0 0.0
2016-Jun-25 08:32N 52°28' E 004°36'0 0.0
2016-Jun-25 07:32N 52°28' E 004°36'0 0.0
2016-Jun-25 06:32N 52°28' E 004°36'0 0.0
2016-Jun-25 05:32N 52°28' E 004°36'0 0.0
2016-Jun-25 04:32N 52°28' E 004°36'0 0.0
2016-Jun-25 03:32N 52°28' E 004°36'0 0.0
2016-Jun-25 02:32N 52°28' E 004°36'0 0.0
2016-Jun-25 01:29N 52°28' E 004°36'0 0.0
2016-Jun-25 00:32N 52°28' E 004°36'0 0.0
2016-Jun-24 23:32N 52°28' E 004°36'0 0.0
2016-Jun-24 22:32N 52°28' E 004°36'0 0.0
2016-Jun-24 21:32N 52°28' E 004°36'0 0.0
2016-Jun-24 20:32N 52°28' E 004°36'0 0.0
2016-Jun-24 19:32N 52°28' E 004°36'0 0.0
2016-Jun-24 18:32N 52°28' E 004°36'0 0.0
2016-Jun-24 17:32N 52°28' E 004°36'0 0.0
2016-Jun-24 16:32N 52°28' E 004°36'0 0.0
2016-Jun-24 15:32N 52°28' E 004°36'0 0.0
2016-Jun-24 14:32N 52°28' E 004°36'0 0.0
2016-Jun-24 13:32N 52°28' E 004°36'0 0.0
2016-Jun-24 12:31N 52°28' E 004°36'0 0.0
2016-Jun-24 11:31N 52°28' E 004°36'3 1.5
2016-Jun-24 09:34N 52°28' E 004°32'7 6.9
2016-Jun-24 08:33N 52°26' E 004°21'1312.5
2016-Jun-24 07:33N 52°15' E 004°09'23 7.6
2016-Jun-24 04:34N 51°53' E 004°19'1 1.4
2016-Jun-24 03:32N 51°53' E 004°16'0 0.0
2016-Jun-24 02:32N 51°53' E 004°16'0 0.0
2016-Jun-24 01:32N 51°53' E 004°16'0 0.0
2016-Jun-24 00:32N 51°53' E 004°16'0 0.0
2016-Jun-23 23:32N 51°53' E 004°16'0 0.0
2016-Jun-23 22:32N 51°53' E 004°16'0 0.0
2016-Jun-23 21:32N 51°53' E 004°16'0 0.0
2016-Jun-23 20:32N 51°53' E 004°16'0 0.0
2016-Jun-23 19:32N 51°53' E 004°16'0 0.0
2016-Jun-23 18:32N 51°53' E 004°16'0 0.0
2016-Jun-23 17:29N 51°53' E 004°16'0 0.0
2016-Jun-23 16:26N 51°53' E 004°16'0 0.0
2016-Jun-23 15:29N 51°53' E 004°16'0 0.0
2016-Jun-23 14:32N 51°53' E 004°16'0 0.0
2016-Jun-23 13:32N 51°53' E 004°16'0 0.0
2016-Jun-23 12:32N 51°53' E 004°16'0 0.0
2016-Jun-23 11:32N 51°53' E 004°16'0 0.0
2016-Jun-23 10:26N 51°53' E 004°16'0 0.0
2016-Jun-23 09:32N 51°53' E 004°16'0 0.0
2016-Jun-23 08:32N 51°53' E 004°16'0 0.0
2016-Jun-23 07:32N 51°53' E 004°16'0 0.0
2016-Jun-23 05:34N 51°53' E 004°16'0 0.0
2016-Jun-23 04:34N 51°53' E 004°16'0 0.5
2016-Jun-23 03:34N 51°53' E 004°17'6 6.2
2016-Jun-23 02:34N 51°57' E 004°09'9 8.5
2016-Jun-23 01:34N 51°59' E 003°56'6 6.4
2016-Jun-23 00:33N 51°57' E 003°46'0 0.1
2016-Jun-22 23:26N 51°57' E 003°46'0 0.0
2016-Jun-22 22:29N 51°57' E 003°46'0 0.0
2016-Jun-22 21:32N 51°57' E 003°46'0 0.0
2016-Jun-22 20:32N 51°57' E 003°46'0 0.1
2016-Jun-22 19:32N 51°57' E 003°46'0 0.1
2016-Jun-22 18:26N 51°57' E 003°47'0 0.0
2016-Jun-22 17:29N 51°57' E 003°47'0 0.0
2016-Jun-22 16:23N 51°57' E 003°47'0 0.0
2016-Jun-22 15:32N 51°57' E 003°47'0 0.0
2016-Jun-22 14:20N 51°57' E 003°47'0 0.1
2016-Jun-22 13:29N 51°57' E 003°46'0 0.1
2016-Jun-22 12:32N 51°57' E 003°46'0 0.1
2016-Jun-22 11:20N 51°57' E 003°46'0 0.1
2016-Jun-22 10:23N 51°57' E 003°46'0 0.0
2016-Jun-22 09:32N 51°57' E 003°46'0 0.0
2016-Jun-22 08:32N 51°57' E 003°46'6 5.4
2016-Jun-22 07:23N 51°57' E 003°36'5 6.0
2016-Jun-22 06:33N 51°55' E 003°28'19 9.2
2016-Jun-22 04:30N 51°50' E 002°59'2010.3
2016-Jun-22 02:34N 51°41' E 002°31'1211.4
2016-Jun-22 01:31N 51°32' E 002°19'1111.0
2016-Jun-22 00:33N 51°22' E 002°10'1110.6
2016-Jun-21 23:33N 51°13' E 002°02'1010.4
2016-Jun-21 22:33N 51°07' E 001°49'9 9.3
2016-Jun-21 21:33N 50°60' E 001°39'8 7.8
2016-Jun-21 20:33N 50°54' E 001°30'7 7.0
2016-Jun-21 19:33N 50°47' E 001°27'48 8.0
2016-Jun-21 13:33N 50°21' E 000°23'9 9.0
2016-Jun-21 12:33N 50°19' E 000°09'10 9.6
2016-Jun-21 11:33N 50°17' W 000°05'1110.6
2016-Jun-21 10:33N 50°14' W 000°21'1211.6
2016-Jun-21 09:32N 50°11' W 000°39'1212.4
2016-Jun-21 08:33N 50°08' W 000°57'1312.5
2016-Jun-21 07:32N 50°04' W 001°17'59 8.5
2016-Jun-21 00:33N 49°49' W 002°45'8 7.9
2016-Jun-20 23:33N 49°45' W 002°56'9 8.8
2016-Jun-20 22:33N 49°40' W 003°07'9 9.3
2016-Jun-20 21:33N 49°35' W 003°19'9 9.4
2016-Jun-20 20:33N 49°29' W 003°31'6310.4
2016-Jun-20 14:33N 48°51' W 004°47'1010.1
2016-Jun-20 13:33N 48°45' W 004°59'9 9.3
2016-Jun-20 12:33N 48°40' W 005°11'9 8.6
2016-Jun-20 11:32N 48°33' W 005°20'7 7.4
2016-Jun-20 10:32N 48°28' W 005°27'  

Dump ship's entire track history